sensor_id;sensor_type;location;lat;lon;timestamp;temperature;humidity
17452;DHT22;8843;48.838;9.324;2023-12-20T00:01:02;5.40;95.30
17452;DHT22;8843;48.838;9.324;2023-12-20T00:03:29;5.50;95.40
17452;DHT22;8843;48.838;9.324;2023-12-20T00:05:56;5.40;95.30
17452;DHT22;8843;48.838;9.324;2023-12-20T00:08:23;5.40;95.40
17452;DHT22;8843;48.838;9.324;2023-12-20T00:10:50;5.40;95.80
17452;DHT22;8843;48.838;9.324;2023-12-20T00:13:18;5.40;95.50
17452;DHT22;8843;48.838;9.324;2023-12-20T00:15:45;5.40;95.40
17452;DHT22;8843;48.838;9.324;2023-12-20T00:18:11;5.40;95.60
17452;DHT22;8843;48.838;9.324;2023-12-20T00:20:38;5.40;95.60
17452;DHT22;8843;48.838;9.324;2023-12-20T00:23:05;5.40;95.60
17452;DHT22;8843;48.838;9.324;2023-12-20T00:25:33;5.40;95.70
17452;DHT22;8843;48.838;9.324;2023-12-20T00:28:00;5.40;95.70
17452;DHT22;8843;48.838;9.324;2023-12-20T00:30:29;5.40;95.70
17452;DHT22;8843;48.838;9.324;2023-12-20T00:32:56;5.40;95.60
17452;DHT22;8843;48.838;9.324;2023-12-20T00:35:22;5.40;95.70
17452;DHT22;8843;48.838;9.324;2023-12-20T00:37:49;5.40;95.80
17452;DHT22;8843;48.838;9.324;2023-12-20T00:40:16;5.40;95.90
17452;DHT22;8843;48.838;9.324;2023-12-20T00:42:43;5.40;95.90
17452;DHT22;8843;48.838;9.324;2023-12-20T00:45:12;5.40;95.80
17452;DHT22;8843;48.838;9.324;2023-12-20T00:47:41;5.40;96.20
17452;DHT22;8843;48.838;9.324;2023-12-20T00:50:08;5.40;96.00
17452;DHT22;8843;48.838;9.324;2023-12-20T00:52:35;5.50;95.90
17452;DHT22;8843;48.838;9.324;2023-12-20T00:55:03;5.50;96.00
17452;DHT22;8843;48.838;9.324;2023-12-20T00:57:30;5.40;96.00
17452;DHT22;8843;48.838;9.324;2023-12-20T00:59:57;5.40;96.00
17452;DHT22;8843;48.838;9.324;2023-12-20T01:02:24;5.40;96.10
17452;DHT22;8843;48.838;9.324;2023-12-20T01:04:52;5.50;96.10
17452;DHT22;8843;48.838;9.324;2023-12-20T01:07:19;5.40;96.00
17452;DHT22;8843;48.838;9.324;2023-12-20T01:09:46;5.50;96.10
17452;DHT22;8843;48.838;9.324;2023-12-20T01:12:13;5.50;96.10
17452;DHT22;8843;48.838;9.324;2023-12-20T01:14:40;5.40;96.10
17452;DHT22;8843;48.838;9.324;2023-12-20T01:17:07;5.40;96.20
17452;DHT22;8843;48.838;9.324;2023-12-20T01:19:35;5.40;96.10
17452;DHT22;8843;48.838;9.324;2023-12-20T01:22:03;5.40;96.20
17452;DHT22;8843;48.838;9.324;2023-12-20T01:24:30;5.40;96.30
17452;DHT22;8843;48.838;9.324;2023-12-20T01:26:57;5.40;96.30
17452;DHT22;8843;48.838;9.324;2023-12-20T01:29:24;5.40;96.40
17452;DHT22;8843;48.838;9.324;2023-12-20T01:31:51;5.40;96.40
17452;DHT22;8843;48.838;9.324;2023-12-20T01:34:18;5.40;96.40
17452;DHT22;8843;48.838;9.324;2023-12-20T01:36:45;5.40;96.50
17452;DHT22;8843;48.838;9.324;2023-12-20T01:39:13;5.40;96.50
17452;DHT22;8843;48.838;9.324;2023-12-20T01:41:40;5.40;96.50
17452;DHT22;8843;48.838;9.324;2023-12-20T01:44:07;5.40;96.50
17452;DHT22;8843;48.838;9.324;2023-12-20T01:46:33;5.40;96.60
17452;DHT22;8843;48.838;9.324;2023-12-20T01:49:00;5.50;96.60
17452;DHT22;8843;48.838;9.324;2023-12-20T01:51:28;5.40;96.60
17452;DHT22;8843;48.838;9.324;2023-12-20T01:53:55;5.40;96.60
17452;DHT22;8843;48.838;9.324;2023-12-20T01:56:26;5.40;96.70
17452;DHT22;8843;48.838;9.324;2023-12-20T01:58:53;5.40;96.70
17452;DHT22;8843;48.838;9.324;2023-12-20T02:01:21;5.50;96.70
17452;DHT22;8843;48.838;9.324;2023-12-20T02:03:48;5.40;96.70
17452;DHT22;8843;48.838;9.324;2023-12-20T02:06:15;5.50;97.10
17452;DHT22;8843;48.838;9.324;2023-12-20T02:08:42;5.40;96.70
17452;DHT22;8843;48.838;9.324;2023-12-20T02:11:10;5.40;96.70
17452;DHT22;8843;48.838;9.324;2023-12-20T02:13:38;5.40;96.70
17452;DHT22;8843;48.838;9.324;2023-12-20T02:16:04;5.40;96.80
17452;DHT22;8843;48.838;9.324;2023-12-20T02:18:33;5.50;96.80
17452;DHT22;8843;48.838;9.324;2023-12-20T02:21:00;5.40;96.80
17452;DHT22;8843;48.838;9.324;2023-12-20T02:23:28;5.50;96.80
17452;DHT22;8843;48.838;9.324;2023-12-20T02:25:55;5.50;96.80
17452;DHT22;8843;48.838;9.324;2023-12-20T02:28:22;5.50;96.80
17452;DHT22;8843;48.838;9.324;2023-12-20T02:30:49;5.50;96.80
17452;DHT22;8843;48.838;9.324;2023-12-20T02:33:16;5.50;96.80
17452;DHT22;8843;48.838;9.324;2023-12-20T02:35:43;5.50;96.90
17452;DHT22;8843;48.838;9.324;2023-12-20T02:38:09;5.50;96.90
17452;DHT22;8843;48.838;9.324;2023-12-20T02:40:38;5.50;96.90
17452;DHT22;8843;48.838;9.324;2023-12-20T02:43:04;5.50;96.90
17452;DHT22;8843;48.838;9.324;2023-12-20T02:45:31;5.50;97.20
17452;DHT22;8843;48.838;9.324;2023-12-20T02:47:58;5.50;96.90
17452;DHT22;8843;48.838;9.324;2023-12-20T02:50:25;5.50;96.90
17452;DHT22;8843;48.838;9.324;2023-12-20T02:52:52;5.50;96.90
17452;DHT22;8843;48.838;9.324;2023-12-20T02:55:18;5.50;96.90
17452;DHT22;8843;48.838;9.324;2023-12-20T02:57:46;5.50;96.90
17452;DHT22;8843;48.838;9.324;2023-12-20T03:00:13;5.50;96.90
17452;DHT22;8843;48.838;9.324;2023-12-20T03:02:40;5.50;96.90
17452;DHT22;8843;48.838;9.324;2023-12-20T03:05:07;5.50;96.90
17452;DHT22;8843;48.838;9.324;2023-12-20T03:07:36;5.50;97.00
17452;DHT22;8843;48.838;9.324;2023-12-20T03:10:04;5.50;96.80
17452;DHT22;8843;48.838;9.324;2023-12-20T03:12:31;5.50;96.80
17452;DHT22;8843;48.838;9.324;2023-12-20T03:14:59;5.50;96.90
17452;DHT22;8843;48.838;9.324;2023-12-20T03:17:26;5.50;96.90
17452;DHT22;8843;48.838;9.324;2023-12-20T03:19:53;5.50;97.00
17452;DHT22;8843;48.838;9.324;2023-12-20T03:22:20;5.50;97.30
17452;DHT22;8843;48.838;9.324;2023-12-20T03:24:47;5.50;96.90
17452;DHT22;8843;48.838;9.324;2023-12-20T03:27:14;5.50;96.90
17452;DHT22;8843;48.838;9.324;2023-12-20T03:29:41;5.50;96.80
17452;DHT22;8843;48.838;9.324;2023-12-20T03:32:09;5.50;96.80
17452;DHT22;8843;48.838;9.324;2023-12-20T03:34:35;5.50;96.80
17452;DHT22;8843;48.838;9.324;2023-12-20T03:37:03;5.50;96.90
17452;DHT22;8843;48.838;9.324;2023-12-20T03:39:29;5.50;96.90
17452;DHT22;8843;48.838;9.324;2023-12-20T03:41:57;5.50;96.80
17452;DHT22;8843;48.838;9.324;2023-12-20T03:44:24;5.50;96.90
17452;DHT22;8843;48.838;9.324;2023-12-20T03:46:51;5.50;97.30
17452;DHT22;8843;48.838;9.324;2023-12-20T03:49:19;5.50;97.10
17452;DHT22;8843;48.838;9.324;2023-12-20T03:51:46;5.50;97.10
17452;DHT22;8843;48.838;9.324;2023-12-20T03:54:13;5.50;97.00
17452;DHT22;8843;48.838;9.324;2023-12-20T03:56:39;5.50;96.80
17452;DHT22;8843;48.838;9.324;2023-12-20T03:59:06;5.50;97.00
17452;DHT22;8843;48.838;9.324;2023-12-20T04:01:33;5.50;97.00
17452;DHT22;8843;48.838;9.324;2023-12-20T04:04:00;5.50;97.10
17452;DHT22;8843;48.838;9.324;2023-12-20T04:06:28;5.50;97.10
17452;DHT22;8843;48.838;9.324;2023-12-20T04:08:55;5.50;97.10
17452;DHT22;8843;48.838;9.324;2023-12-20T04:11:22;5.50;97.10
17452;DHT22;8843;48.838;9.324;2023-12-20T04:13:48;5.50;97.20
17452;DHT22;8843;48.838;9.324;2023-12-20T04:16:15;5.40;97.50
17452;DHT22;8843;48.838;9.324;2023-12-20T04:18:42;5.50;97.40
17452;DHT22;8843;48.838;9.324;2023-12-20T04:21:09;5.50;97.30
17452;DHT22;8843;48.838;9.324;2023-12-20T04:23:37;5.50;97.10
17452;DHT22;8843;48.838;9.324;2023-12-20T04:26:04;5.50;97.20
17452;DHT22;8843;48.838;9.324;2023-12-20T04:28:31;5.50;97.30
17452;DHT22;8843;48.838;9.324;2023-12-20T04:30:57;5.50;97.30
17452;DHT22;8843;48.838;9.324;2023-12-20T04:33:24;5.50;97.40
17452;DHT22;8843;48.838;9.324;2023-12-20T04:35:51;5.50;97.30
17452;DHT22;8843;48.838;9.324;2023-12-20T04:38:18;5.50;97.30
17452;DHT22;8843;48.838;9.324;2023-12-20T04:40:46;5.50;97.30
17452;DHT22;8843;48.838;9.324;2023-12-20T04:43:13;5.50;97.20
17452;DHT22;8843;48.838;9.324;2023-12-20T04:45:40;5.50;97.30
17452;DHT22;8843;48.838;9.324;2023-12-20T04:48:07;5.50;97.30
17452;DHT22;8843;48.838;9.324;2023-12-20T04:50:34;5.50;97.20
17452;DHT22;8843;48.838;9.324;2023-12-20T04:53:01;5.50;97.20
17452;DHT22;8843;48.838;9.324;2023-12-20T04:55:28;5.50;97.60
17452;DHT22;8843;48.838;9.324;2023-12-20T04:57:56;5.50;97.30
17452;DHT22;8843;48.838;9.324;2023-12-20T05:00:23;5.50;97.30
17452;DHT22;8843;48.838;9.324;2023-12-20T05:02:50;5.50;97.30
17452;DHT22;8843;48.838;9.324;2023-12-20T05:05:17;5.50;97.30
17452;DHT22;8843;48.838;9.324;2023-12-20T05:07:44;5.50;97.30
17452;DHT22;8843;48.838;9.324;2023-12-20T05:10:11;5.50;97.20
17452;DHT22;8843;48.838;9.324;2023-12-20T05:12:38;5.50;97.40
17452;DHT22;8843;48.838;9.324;2023-12-20T05:15:07;5.50;97.40
17452;DHT22;8843;48.838;9.324;2023-12-20T05:17:34;5.50;97.40
17452;DHT22;8843;48.838;9.324;2023-12-20T05:20:01;5.50;97.40
17452;DHT22;8843;48.838;9.324;2023-12-20T05:22:28;5.50;97.30
17452;DHT22;8843;48.838;9.324;2023-12-20T05:24:55;5.50;97.70
17452;DHT22;8843;48.838;9.324;2023-12-20T05:27:22;5.50;97.40
17452;DHT22;8843;48.838;9.324;2023-12-20T05:29:48;5.60;97.30
17452;DHT22;8843;48.838;9.324;2023-12-20T05:32:17;5.60;97.40
17452;DHT22;8843;48.838;9.324;2023-12-20T05:34:43;5.50;97.30
17452;DHT22;8843;48.838;9.324;2023-12-20T05:37:10;5.60;97.40
17452;DHT22;8843;48.838;9.324;2023-12-20T05:39:37;5.60;97.30
17452;DHT22;8843;48.838;9.324;2023-12-20T05:42:04;5.50;97.50
17452;DHT22;8843;48.838;9.324;2023-12-20T05:44:31;5.50;97.30
17452;DHT22;8843;48.838;9.324;2023-12-20T05:46:58;5.50;97.40
17452;DHT22;8843;48.838;9.324;2023-12-20T05:49:26;5.50;97.50
17452;DHT22;8843;48.838;9.324;2023-12-20T05:51:53;5.50;97.40
17452;DHT22;8843;48.838;9.324;2023-12-20T05:54:20;5.50;97.60
17452;DHT22;8843;48.838;9.324;2023-12-20T05:56:47;5.50;97.60
17452;DHT22;8843;48.838;9.324;2023-12-20T05:59:14;5.50;98.00
17452;DHT22;8843;48.838;9.324;2023-12-20T06:01:41;5.50;97.60
17452;DHT22;8843;48.838;9.324;2023-12-20T06:04:08;5.50;97.70
17452;DHT22;8843;48.838;9.324;2023-12-20T06:06:40;5.50;98.00
17452;DHT22;8843;48.838;9.324;2023-12-20T06:09:07;5.50;97.70
17452;DHT22;8843;48.838;9.324;2023-12-20T06:11:34;5.50;97.70
17452;DHT22;8843;48.838;9.324;2023-12-20T06:14:01;5.50;97.70
17452;DHT22;8843;48.838;9.324;2023-12-20T06:16:28;5.60;97.70
17452;DHT22;8843;48.838;9.324;2023-12-20T06:18:55;5.60;97.60
17452;DHT22;8843;48.838;9.324;2023-12-20T06:21:21;5.60;97.60
17452;DHT22;8843;48.838;9.324;2023-12-20T06:23:50;5.60;97.50
17452;DHT22;8843;48.838;9.324;2023-12-20T06:26:16;5.60;97.60
17452;DHT22;8843;48.838;9.324;2023-12-20T06:28:43;5.60;99.90
17452;DHT22;8843;48.838;9.324;2023-12-20T06:31:10;7.00;99.30
17452;DHT22;8843;48.838;9.324;2023-12-20T06:33:37;7.40;97.40
17452;DHT22;8843;48.838;9.324;2023-12-20T06:36:06;7.70;96.00
17452;DHT22;8843;48.838;9.324;2023-12-20T06:38:33;8.00;95.10
17452;DHT22;8843;48.838;9.324;2023-12-20T06:41:01;8.00;95.00
17452;DHT22;8843;48.838;9.324;2023-12-20T06:43:28;7.30;95.70
17452;DHT22;8843;48.838;9.324;2023-12-20T06:45:55;6.80;96.40
17452;DHT22;8843;48.838;9.324;2023-12-20T06:48:22;6.50;96.90
17452;DHT22;8843;48.838;9.324;2023-12-20T06:50:49;6.30;97.30
17452;DHT22;8843;48.838;9.324;2023-12-20T06:53:16;6.20;97.60
17452;DHT22;8843;48.838;9.324;2023-12-20T06:55:43;6.10;97.80
17452;DHT22;8843;48.838;9.324;2023-12-20T06:58:11;6.00;97.90
17452;DHT22;8843;48.838;9.324;2023-12-20T07:00:38;6.00;98.00
17452;DHT22;8843;48.838;9.324;2023-12-20T07:03:05;6.00;98.10
17452;DHT22;8843;48.838;9.324;2023-12-20T07:05:32;6.00;98.10
17452;DHT22;8843;48.838;9.324;2023-12-20T07:07:59;5.90;98.00
17452;DHT22;8843;48.838;9.324;2023-12-20T07:10:25;5.90;98.10
17452;DHT22;8843;48.838;9.324;2023-12-20T07:12:52;6.00;98.10
17452;DHT22;8843;48.838;9.324;2023-12-20T07:15:22;6.00;98.30
17452;DHT22;8843;48.838;9.324;2023-12-20T07:17:48;5.90;98.00
17452;DHT22;8843;48.838;9.324;2023-12-20T07:20:15;5.90;97.90
17452;DHT22;8843;48.838;9.324;2023-12-20T07:22:42;6.10;98.70
17452;DHT22;8843;48.838;9.324;2023-12-20T07:25:09;6.00;98.30
17452;DHT22;8843;48.838;9.324;2023-12-20T07:27:37;7.40;99.90
17452;DHT22;8843;48.838;9.324;2023-12-20T07:30:04;7.50;97.60
17452;DHT22;8843;48.838;9.324;2023-12-20T07:32:33;6.90;97.00
17452;DHT22;8843;48.838;9.324;2023-12-20T07:35:00;6.50;97.30
17452;DHT22;8843;48.838;9.324;2023-12-20T07:37:30;6.20;97.70
17452;DHT22;8843;48.838;9.324;2023-12-20T07:39:58;6.10;98.30
17452;DHT22;8843;48.838;9.324;2023-12-20T07:42:25;6.00;98.50
17452;DHT22;8843;48.838;9.324;2023-12-20T07:44:51;6.00;98.70
17452;DHT22;8843;48.838;9.324;2023-12-20T07:47:18;5.90;98.70
17452;DHT22;8843;48.838;9.324;2023-12-20T07:49:48;5.90;98.80
17452;DHT22;8843;48.838;9.324;2023-12-20T07:52:17;5.90;98.70
17452;DHT22;8843;48.838;9.324;2023-12-20T07:54:44;5.90;98.80
17452;DHT22;8843;48.838;9.324;2023-12-20T07:57:10;5.90;98.90
17452;DHT22;8843;48.838;9.324;2023-12-20T07:59:37;5.90;98.80
17452;DHT22;8843;48.838;9.324;2023-12-20T08:02:04;5.90;98.80
17452;DHT22;8843;48.838;9.324;2023-12-20T08:04:32;5.90;99.10
17452;DHT22;8843;48.838;9.324;2023-12-20T08:07:00;5.90;98.80
17452;DHT22;8843;48.838;9.324;2023-12-20T08:09:27;5.90;98.70
17452;DHT22;8843;48.838;9.324;2023-12-20T08:11:54;5.90;98.70
17452;DHT22;8843;48.838;9.324;2023-12-20T08:14:21;5.90;98.60
17452;DHT22;8843;48.838;9.324;2023-12-20T08:16:48;5.80;98.70
17452;DHT22;8843;48.838;9.324;2023-12-20T08:19:14;5.90;98.70
17452;DHT22;8843;48.838;9.324;2023-12-20T08:21:41;5.90;98.70
17452;DHT22;8843;48.838;9.324;2023-12-20T08:24:09;5.90;98.60
17452;DHT22;8843;48.838;9.324;2023-12-20T08:26:36;5.90;98.50
17452;DHT22;8843;48.838;9.324;2023-12-20T08:29:03;5.90;98.80
17452;DHT22;8843;48.838;9.324;2023-12-20T08:31:30;5.90;98.30
17452;DHT22;8843;48.838;9.324;2023-12-20T08:33:57;5.90;98.40
17452;DHT22;8843;48.838;9.324;2023-12-20T08:36:24;5.90;98.40
17452;DHT22;8843;48.838;9.324;2023-12-20T08:38:50;5.90;98.40
17452;DHT22;8843;48.838;9.324;2023-12-20T08:41:19;5.90;98.80
17452;DHT22;8843;48.838;9.324;2023-12-20T08:43:46;5.90;98.30
17452;DHT22;8843;48.838;9.324;2023-12-20T08:46:14;5.90;98.20
17452;DHT22;8843;48.838;9.324;2023-12-20T08:48:41;5.90;98.30
17452;DHT22;8843;48.838;9.324;2023-12-20T08:51:08;5.90;98.30
17452;DHT22;8843;48.838;9.324;2023-12-20T08:53:34;5.90;98.30
17452;DHT22;8843;48.838;9.324;2023-12-20T08:56:01;5.90;98.70
17452;DHT22;8843;48.838;9.324;2023-12-20T08:58:30;5.90;98.30
17452;DHT22;8843;48.838;9.324;2023-12-20T09:00:56;5.90;98.40
17452;DHT22;8843;48.838;9.324;2023-12-20T09:03:23;5.90;98.30
17452;DHT22;8843;48.838;9.324;2023-12-20T09:05:50;5.90;98.30
17452;DHT22;8843;48.838;9.324;2023-12-20T09:08:17;6.00;98.30
17452;DHT22;8843;48.838;9.324;2023-12-20T09:10:44;6.00;98.30
17452;DHT22;8843;48.838;9.324;2023-12-20T09:13:11;5.90;98.40
17452;DHT22;8843;48.838;9.324;2023-12-20T09:15:39;5.90;98.40
17452;DHT22;8843;48.838;9.324;2023-12-20T09:18:06;5.90;98.50
17452;DHT22;8843;48.838;9.324;2023-12-20T09:20:33;5.90;98.50
17452;DHT22;8843;48.838;9.324;2023-12-20T09:23:00;5.90;98.60
17452;DHT22;8843;48.838;9.324;2023-12-20T09:25:28;5.90;98.70
17452;DHT22;8843;48.838;9.324;2023-12-20T09:27:55;5.90;98.60
17452;DHT22;8843;48.838;9.324;2023-12-20T09:30:22;5.90;98.50
17452;DHT22;8843;48.838;9.324;2023-12-20T09:32:50;5.90;98.50
17452;DHT22;8843;48.838;9.324;2023-12-20T09:35:17;5.90;98.30
17452;DHT22;8843;48.838;9.324;2023-12-20T09:37:44;6.00;98.60
17452;DHT22;8843;48.838;9.324;2023-12-20T09:40:13;5.90;99.00
17452;DHT22;8843;48.838;9.324;2023-12-20T09:42:46;5.90;98.70
17452;DHT22;8843;48.838;9.324;2023-12-20T09:45:15;5.90;98.70
17452;DHT22;8843;48.838;9.324;2023-12-20T09:47:43;5.90;98.70
17452;DHT22;8843;48.838;9.324;2023-12-20T09:50:12;5.90;98.70
17452;DHT22;8843;48.838;9.324;2023-12-20T09:52:40;6.00;98.60
17452;DHT22;8843;48.838;9.324;2023-12-20T09:55:08;6.00;98.40
17452;DHT22;8843;48.838;9.324;2023-12-20T09:57:35;6.00;98.40
17452;DHT22;8843;48.838;9.324;2023-12-20T10:00:02;6.00;98.40
17452;DHT22;8843;48.838;9.324;2023-12-20T10:02:31;5.90;98.40
17452;DHT22;8843;48.838;9.324;2023-12-20T10:04:58;5.90;98.30
17452;DHT22;8843;48.838;9.324;2023-12-20T10:07:27;5.90;98.10
17452;DHT22;8843;48.838;9.324;2023-12-20T10:09:54;5.90;98.20
17452;DHT22;8843;48.838;9.324;2023-12-20T10:12:21;6.00;98.20
17452;DHT22;8843;48.838;9.324;2023-12-20T10:14:48;6.00;98.10
17452;DHT22;8843;48.838;9.324;2023-12-20T10:17:16;6.00;98.10
17452;DHT22;8843;48.838;9.324;2023-12-20T10:19:44;6.00;97.80
17452;DHT22;8843;48.838;9.324;2023-12-20T10:22:10;6.00;97.80
17452;DHT22;8843;48.838;9.324;2023-12-20T10:24:40;6.00;97.60
17452;DHT22;8843;48.838;9.324;2023-12-20T10:27:08;6.00;97.70
17452;DHT22;8843;48.838;9.324;2023-12-20T10:29:36;6.00;97.50
17452;DHT22;8843;48.838;9.324;2023-12-20T10:32:23;6.00;97.40
17452;DHT22;8843;48.838;9.324;2023-12-20T10:34:50;6.00;97.70
17452;DHT22;8843;48.838;9.324;2023-12-20T10:37:17;6.00;97.60
17452;DHT22;8843;48.838;9.324;2023-12-20T10:39:49;6.00;98.10
17452;DHT22;8843;48.838;9.324;2023-12-20T10:42:17;6.00;97.70
17452;DHT22;8843;48.838;9.324;2023-12-20T10:44:44;6.50;99.40
17452;DHT22;8843;48.838;9.324;2023-12-20T10:47:12;6.40;97.10
17452;DHT22;8843;48.838;9.324;2023-12-20T10:49:40;6.30;97.60
17452;DHT22;8843;48.838;9.324;2023-12-20T10:52:09;6.20;97.10
17452;DHT22;8843;48.838;9.324;2023-12-20T10:54:38;6.20;97.40
17452;DHT22;8843;48.838;9.324;2023-12-20T10:57:07;6.10;97.50
17452;DHT22;8843;48.838;9.324;2023-12-20T10:59:36;6.10;97.60
17452;DHT22;8843;48.838;9.324;2023-12-20T11:02:04;6.10;98.00
17452;DHT22;8843;48.838;9.324;2023-12-20T11:04:39;6.10;97.60
17452;DHT22;8843;48.838;9.324;2023-12-20T11:07:18;6.20;97.40
17452;DHT22;8843;48.838;9.324;2023-12-20T11:09:52;6.20;97.60
17452;DHT22;8843;48.838;9.324;2023-12-20T11:12:29;6.20;97.60
17452;DHT22;8843;48.838;9.324;2023-12-20T11:14:59;6.20;97.80
17452;DHT22;8843;48.838;9.324;2023-12-20T11:17:29;6.20;98.00
17452;DHT22;8843;48.838;9.324;2023-12-20T11:20:05;6.30;97.80
17452;DHT22;8843;48.838;9.324;2023-12-20T11:22:33;6.30;97.60
17452;DHT22;8843;48.838;9.324;2023-12-20T11:25:04;6.30;97.50
17452;DHT22;8843;48.838;9.324;2023-12-20T11:27:33;6.30;96.90
17452;DHT22;8843;48.838;9.324;2023-12-20T11:30:03;6.30;96.80
17452;DHT22;8843;48.838;9.324;2023-12-20T11:32:34;6.20;96.90
17452;DHT22;8843;48.838;9.324;2023-12-20T11:35:16;6.20;96.60
17452;DHT22;8843;48.838;9.324;2023-12-20T11:37:44;6.20;96.70
17452;DHT22;8843;48.838;9.324;2023-12-20T11:40:14;6.20;96.90
17452;DHT22;8843;48.838;9.324;2023-12-20T11:42:43;6.20;96.70
17452;DHT22;8843;48.838;9.324;2023-12-20T11:45:13;6.20;96.80
17452;DHT22;8843;48.838;9.324;2023-12-20T11:47:41;6.20;96.50
17452;DHT22;8843;48.838;9.324;2023-12-20T11:50:09;6.20;96.40
17452;DHT22;8843;48.838;9.324;2023-12-20T11:52:35;6.20;96.50
17452;DHT22;8843;48.838;9.324;2023-12-20T11:55:03;6.20;96.30
17452;DHT22;8843;48.838;9.324;2023-12-20T11:57:30;6.20;96.30
17452;DHT22;8843;48.838;9.324;2023-12-20T11:59:58;6.20;96.40
17452;DHT22;8843;48.838;9.324;2023-12-20T12:02:25;6.20;96.20
17452;DHT22;8843;48.838;9.324;2023-12-20T12:04:52;6.20;95.80
17452;DHT22;8843;48.838;9.324;2023-12-20T12:07:19;6.20;95.80
17452;DHT22;8843;48.838;9.324;2023-12-20T12:09:46;6.10;95.90
17452;DHT22;8843;48.838;9.324;2023-12-20T12:12:13;6.10;96.00
17452;DHT22;8843;48.838;9.324;2023-12-20T12:14:40;6.10;96.10
17452;DHT22;8843;48.838;9.324;2023-12-20T12:17:11;6.10;96.60
17452;DHT22;8843;48.838;9.324;2023-12-20T12:19:39;6.10;96.50
17452;DHT22;8843;48.838;9.324;2023-12-20T12:22:07;6.10;96.30
17452;DHT22;8843;48.838;9.324;2023-12-20T12:24:35;6.10;96.00
17452;DHT22;8843;48.838;9.324;2023-12-20T12:27:03;6.10;95.90
17452;DHT22;8843;48.838;9.324;2023-12-20T12:29:30;6.10;96.20
17452;DHT22;8843;48.838;9.324;2023-12-20T12:31:57;6.10;96.30
17452;DHT22;8843;48.838;9.324;2023-12-20T12:34:27;6.10;96.40
17452;DHT22;8843;48.838;9.324;2023-12-20T12:36:54;6.10;96.00
17452;DHT22;8843;48.838;9.324;2023-12-20T12:39:23;6.10;96.10
17452;DHT22;8843;48.838;9.324;2023-12-20T12:41:51;6.10;96.00
17452;DHT22;8843;48.838;9.324;2023-12-20T12:44:17;6.10;96.00
17452;DHT22;8843;48.838;9.324;2023-12-20T12:46:45;6.10;96.40
17452;DHT22;8843;48.838;9.324;2023-12-20T12:49:12;6.10;96.30
17452;DHT22;8843;48.838;9.324;2023-12-20T12:51:40;6.10;96.40
17452;DHT22;8843;48.838;9.324;2023-12-20T12:54:07;6.20;96.50
17452;DHT22;8843;48.838;9.324;2023-12-20T12:56:35;6.10;96.70
17452;DHT22;8843;48.838;9.324;2023-12-20T12:59:02;6.20;96.60
17452;DHT22;8843;48.838;9.324;2023-12-20T13:01:29;6.10;96.40
17452;DHT22;8843;48.838;9.324;2023-12-20T13:03:56;6.20;96.50
17452;DHT22;8843;48.838;9.324;2023-12-20T13:06:23;6.20;96.00
17452;DHT22;8843;48.838;9.324;2023-12-20T13:08:51;6.40;96.70
17452;DHT22;8843;48.838;9.324;2023-12-20T13:11:18;6.30;94.10
17452;DHT22;8843;48.838;9.324;2023-12-20T13:13:45;6.30;95.20
17452;DHT22;8843;48.838;9.324;2023-12-20T13:16:12;6.20;95.00
17452;DHT22;8843;48.838;9.324;2023-12-20T13:18:40;6.20;95.40
17452;DHT22;8843;48.838;9.324;2023-12-20T13:21:08;6.20;95.70
17452;DHT22;8843;48.838;9.324;2023-12-20T13:23:35;6.20;95.60
17452;DHT22;8843;48.838;9.324;2023-12-20T13:26:03;6.20;95.50
17452;DHT22;8843;48.838;9.324;2023-12-20T13:28:30;6.10;95.20
17452;DHT22;8843;48.838;9.324;2023-12-20T13:30:56;6.10;95.30
17452;DHT22;8843;48.838;9.324;2023-12-20T13:33:23;6.20;95.50
17452;DHT22;8843;48.838;9.324;2023-12-20T13:35:51;6.20;95.70
17452;DHT22;8843;48.838;9.324;2023-12-20T13:38:17;6.10;95.30
17452;DHT22;8843;48.838;9.324;2023-12-20T13:40:44;6.20;95.50
17452;DHT22;8843;48.838;9.324;2023-12-20T13:43:13;6.10;95.20
17452;DHT22;8843;48.838;9.324;2023-12-20T13:45:43;6.10;95.10
17452;DHT22;8843;48.838;9.324;2023-12-20T13:48:10;6.10;95.30
17452;DHT22;8843;48.838;9.324;2023-12-20T13:50:37;6.10;95.30
17452;DHT22;8843;48.838;9.324;2023-12-20T13:53:04;6.20;95.70
17452;DHT22;8843;48.838;9.324;2023-12-20T13:55:30;6.10;95.40
17452;DHT22;8843;48.838;9.324;2023-12-20T13:57:57;6.10;95.30
17452;DHT22;8843;48.838;9.324;2023-12-20T14:00:25;6.20;95.50
17452;DHT22;8843;48.838;9.324;2023-12-20T14:02:52;6.10;95.20
17452;DHT22;8843;48.838;9.324;2023-12-20T14:05:19;6.10;95.60
17452;DHT22;8843;48.838;9.324;2023-12-20T14:07:46;6.20;95.70
17452;DHT22;8843;48.838;9.324;2023-12-20T14:10:13;6.20;95.30
17452;DHT22;8843;48.838;9.324;2023-12-20T14:12:40;6.20;95.60
17452;DHT22;8843;48.838;9.324;2023-12-20T14:15:08;6.20;95.50
17452;DHT22;8843;48.838;9.324;2023-12-20T14:17:38;6.10;95.50
17452;DHT22;8843;48.838;9.324;2023-12-20T14:20:06;6.10;95.60
17452;DHT22;8843;48.838;9.324;2023-12-20T14:22:33;6.10;95.70
17452;DHT22;8843;48.838;9.324;2023-12-20T14:25:00;6.20;95.90
17452;DHT22;8843;48.838;9.324;2023-12-20T14:27:27;6.10;95.60
17452;DHT22;8843;48.838;9.324;2023-12-20T14:29:54;6.10;95.50
17452;DHT22;8843;48.838;9.324;2023-12-20T14:32:21;6.20;96.00
17452;DHT22;8843;48.838;9.324;2023-12-20T14:34:49;6.20;95.60
17452;DHT22;8843;48.838;9.324;2023-12-20T14:37:16;6.20;95.80
17452;DHT22;8843;48.838;9.324;2023-12-20T14:39:43;6.20;95.60
17452;DHT22;8843;48.838;9.324;2023-12-20T14:42:10;6.10;95.50
17452;DHT22;8843;48.838;9.324;2023-12-20T14:44:39;6.10;96.20
17452;DHT22;8843;48.838;9.324;2023-12-20T14:47:06;6.10;96.00
17452;DHT22;8843;48.838;9.324;2023-12-20T14:49:33;6.10;95.90
17452;DHT22;8843;48.838;9.324;2023-12-20T14:52:01;6.10;95.90
17452;DHT22;8843;48.838;9.324;2023-12-20T14:54:28;6.10;95.90
17452;DHT22;8843;48.838;9.324;2023-12-20T14:56:55;6.10;95.60
17452;DHT22;8843;48.838;9.324;2023-12-20T14:59:22;6.10;95.80
17452;DHT22;8843;48.838;9.324;2023-12-20T15:01:49;6.00;95.80
17452;DHT22;8843;48.838;9.324;2023-12-20T15:04:17;6.00;95.90
17452;DHT22;8843;48.838;9.324;2023-12-20T15:06:43;6.00;95.50
17452;DHT22;8843;48.838;9.324;2023-12-20T15:09:12;6.00;95.30
17452;DHT22;8843;48.838;9.324;2023-12-20T15:11:39;6.00;95.80
17452;DHT22;8843;48.838;9.324;2023-12-20T15:14:06;6.00;95.40
17452;DHT22;8843;48.838;9.324;2023-12-20T15:16:33;6.00;95.70
17452;DHT22;8843;48.838;9.324;2023-12-20T15:19:00;6.30;97.00
17452;DHT22;8843;48.838;9.324;2023-12-20T15:21:27;6.20;96.20
17452;DHT22;8843;48.838;9.324;2023-12-20T15:23:57;7.30;99.90
17452;DHT22;8843;48.838;9.324;2023-12-20T15:26:32;7.00;97.50
17452;DHT22;8843;48.838;9.324;2023-12-20T15:28:59;6.70;96.80
17452;DHT22;8843;48.838;9.324;2023-12-20T15:31:27;6.50;96.80
17452;DHT22;8843;48.838;9.324;2023-12-20T15:33:54;6.40;96.80
17452;DHT22;8843;48.838;9.324;2023-12-20T15:36:20;6.40;97.30
17452;DHT22;8843;48.838;9.324;2023-12-20T15:38:47;6.30;97.10
17452;DHT22;8843;48.838;9.324;2023-12-20T15:41:17;6.30;97.10
17452;DHT22;8843;48.838;9.324;2023-12-20T15:43:46;6.30;97.20
17452;DHT22;8843;48.838;9.324;2023-12-20T15:46:13;6.30;97.10
17452;DHT22;8843;48.838;9.324;2023-12-20T15:48:40;6.30;97.00
17452;DHT22;8843;48.838;9.324;2023-12-20T15:51:08;6.30;97.10
17452;DHT22;8843;48.838;9.324;2023-12-20T15:53:35;6.30;97.10
17452;DHT22;8843;48.838;9.324;2023-12-20T15:56:03;6.30;97.20
17452;DHT22;8843;48.838;9.324;2023-12-20T15:58:30;6.20;96.80
17452;DHT22;8843;48.838;9.324;2023-12-20T16:00:59;6.20;96.80
17452;DHT22;8843;48.838;9.324;2023-12-20T16:03:26;6.20;97.10